Time;durP1;ratioP1;P1;durP2;ratioP2;P2;SDS_P1;SDS_P2;PMS_P1;PMS_P2;Temp;Humidity;BMP_temperature;BMP_pressure;BME280_temperature;BME280_humidity;BME280_pressure;Samples;Min_cycle;Max_cycle;Signal;HPM_P1;HPM_P2
2023/12/27 00:00:36;;;;;;;1.25;1.25;;;10.70;71.10;;;;;;5115634;28;20093;-75
2023/12/27 00:03:02;;;;;;;1.48;1.38;;;10.70;71.00;;;;;;5108208;28;20085;-75
2023/12/27 00:05:27;;;;;;;1.45;1.40;;;10.70;71.00;;;;;;5107938;28;20419;-75
2023/12/27 00:07:53;;;;;;;1.20;1.20;;;10.70;70.90;;;;;;5128559;27;20060;-75
2023/12/27 00:10:19;;;;;;;1.10;1.10;;;10.70;70.80;;;;;;5119378;27;20023;-75
2023/12/27 00:12:45;;;;;;;1.40;1.30;;;10.70;70.80;;;;;;5081474;28;20106;-75
2023/12/27 00:15:11;;;;;;;1.20;1.20;;;10.70;70.80;;;;;;5105514;27;20023;-74
2023/12/27 00:17:36;;;;;;;1.35;1.27;;;10.70;70.80;;;;;;5121615;27;20035;-75
2023/12/27 00:20:03;;;;;;;1.00;1.00;;;10.70;70.80;;;;;;5122636;27;20377;-75
2023/12/27 00:22:29;;;;;;;1.10;1.10;;;10.70;70.70;;;;;;5120737;27;20027;-75
2023/12/27 00:24:54;;;;;;;1.02;1.02;;;10.70;70.70;;;;;;5135125;27;20027;-74
2023/12/27 00:27:20;;;;;;;1.10;1.10;;;10.70;70.70;;;;;;5126319;27;20031;-74
2023/12/27 00:29:46;;;;;;;1.30;1.20;;;10.70;70.60;;;;;;5138093;27;20058;-76
2023/12/27 00:32:12;;;;;;;1.40;1.30;;;10.70;70.60;;;;;;5106101;28;20039;-75
2023/12/27 00:34:38;;;;;;;1.10;1.10;;;10.70;70.60;;;;;;5116752;28;20023;-76
2023/12/27 00:37:05;;;;;;;1.27;1.27;;;10.70;70.50;;;;;;5098946;28;20350;-76
2023/12/27 00:39:31;;;;;;;1.20;1.20;;;10.70;70.50;;;;;;5117127;28;20028;-74
2023/12/27 00:41:57;;;;;;;1.33;1.30;;;10.70;70.50;;;;;;5117003;28;20078;-74
2023/12/27 00:44:23;;;;;;;1.20;1.20;;;10.70;70.50;;;;;;5098553;28;20459;-74
2023/12/27 00:46:49;;;;;;;1.10;1.10;;;10.70;70.50;;;;;;5098376;28;20032;-75
2023/12/27 00:49:16;;;;;;;1.25;1.20;;;10.70;70.40;;;;;;5125338;27;20023;-74
2023/12/27 00:51:42;;;;;;;1.20;1.20;;;10.70;70.50;;;;;;5119995;27;20382;-77
2023/12/27 00:54:07;;;;;;;1.10;1.10;;;10.70;70.50;;;;;;5078196;28;20038;-75
2023/12/27 00:56:33;;;;;;;1.00;1.00;;;10.70;70.50;;;;;;5077992;28;20067;-76
2023/12/27 00:58:59;;;;;;;1.42;1.33;;;10.70;70.50;;;;;;5096311;28;20028;-75
2023/12/27 01:01:25;;;;;;;1.27;1.25;;;10.70;70.60;;;;;;5078111;28;20095;-76
2023/12/27 01:03:51;;;;;;;1.33;1.23;;;10.70;70.60;;;;;;5077933;28;20466;-74
2023/12/27 01:06:17;;;;;;;1.10;1.10;;;10.70;70.60;;;;;;5095953;28;20027;-74
2023/12/27 01:08:43;;;;;;;1.40;1.30;;;10.70;70.70;;;;;;5115858;28;20028;-76
2023/12/27 01:11:08;;;;;;;1.80;1.70;;;10.70;70.70;;;;;;5115629;28;20019;-73
2023/12/27 01:13:34;;;;;;;1.20;1.20;;;10.70;70.80;;;;;;5115533;28;20023;-76
2023/12/27 01:16:01;;;;;;;1.55;1.40;;;10.70;70.80;;;;;;5116052;27;20030;-74
2023/12/27 01:18:26;;;;;;;1.55;1.38;;;10.70;70.90;;;;;;5115469;28;20043;-73
2023/12/27 01:20:52;;;;;;;1.23;1.23;;;10.70;70.90;;;;;;5118601;27;20377;-76
2023/12/27 01:23:18;;;;;;;1.52;1.42;;;10.70;71.00;;;;;;5117116;27;20039;-75
2023/12/27 01:25:44;;;;;;;1.90;1.75;;;10.60;71.00;;;;;;5098465;28;20024;-74
2023/12/27 01:28:09;;;;;;;1.55;1.45;;;10.70;71.10;;;;;;5115836;27;20032;-74
2023/12/27 01:30:35;;;;;;;1.60;1.50;;;10.70;71.20;;;;;;5116953;27;20028;-75
2023/12/27 01:33:01;;;;;;;1.60;1.50;;;10.70;71.20;;;;;;5115266;27;20035;-76
2023/12/27 01:35:27;;;;;;;1.55;1.40;;;10.70;71.30;;;;;;5120636;27;20445;-74
2023/12/27 01:37:53;;;;;;;1.70;1.60;;;10.60;71.30;;;;;;5127951;27;20035;-75
2023/12/27 01:40:19;;;;;;;1.50;1.40;;;10.70;71.30;;;;;;5113775;28;20408;-74
2023/12/27 01:42:45;;;;;;;1.60;1.50;;;10.60;71.30;;;;;;5112406;27;20035;-74
2023/12/27 01:45:11;;;;;;;1.70;1.60;;;10.70;71.40;;;;;;5125676;27;20077;-75
2023/12/27 01:47:37;;;;;;;1.40;1.30;;;10.70;71.40;;;;;;5114754;28;20034;-75
2023/12/27 01:50:10;;;;;;;1.70;1.50;;;10.60;71.40;;;;;;5098806;28;20023;-76
2023/12/27 01:52:37;;;;;;;1.58;1.48;;;10.70;71.40;;;;;;5097290;28;20363;-75
2023/12/27 01:55:05;;;;;;;1.63;1.52;;;10.60;71.40;;;;;;5123562;27;20049;-75
2023/12/27 01:57:30;;;;;;;1.73;1.63;;;10.60;71.40;;;;;;5116695;27;20118;-74
2023/12/27 01:59:56;;;;;;;1.52;1.42;;;10.60;71.40;;;;;;5117026;27;20157;-76
2023/12/27 02:02:23;;;;;;;1.58;1.48;;;10.60;71.50;;;;;;5132986;27;20080;-77
2023/12/27 02:04:49;;;;;;;1.70;1.60;;;10.60;71.40;;;;;;5097207;28;20027;-77
2023/12/27 02:07:15;;;;;;;1.50;1.40;;;10.60;71.50;;;;;;5096967;28;20518;-75
2023/12/27 02:09:41;;;;;;;1.50;1.40;;;10.60;71.50;;;;;;5100787;28;20027;-74
2023/12/27 02:12:07;;;;;;;1.88;1.30;;;10.60;72.10;;;;;;5105166;28;20116;-75
2023/12/27 02:14:33;;;;;;;1.35;1.25;;;10.60;71.50;;;;;;5116476;27;20118;-75
2023/12/27 02:17:00;;;;;;;1.90;1.45;;;10.60;71.50;;;;;;5129918;27;20028;-75
2023/12/27 02:19:28;;;;;;;1.50;1.40;;;10.60;71.50;;;;;;5120454;27;20080;-75
2023/12/27 02:21:54;;;;;;;1.45;1.35;;;10.60;71.50;;;;;;5117561;27;20034;-74
2023/12/27 02:24:22;;;;;;;1.50;1.40;;;10.60;71.50;;;;;;5116983;27;20060;-74
2023/12/27 02:26:48;;;;;;;1.55;1.45;;;10.50;71.50;;;;;;5116273;27;20456;-74
2023/12/27 02:29:15;;;;;;;1.58;1.48;;;10.50;71.50;;;;;;5117130;27;20051;-73
2023/12/27 02:31:41;;;;;;;1.23;1.23;;;10.50;71.50;;;;;;5116968;27;20023;-74
2023/12/27 02:34:06;;;;;;;1.52;1.42;;;10.50;71.40;;;;;;5135390;27;20038;-74
2023/12/27 02:36:32;;;;;;;1.23;1.17;;;10.50;71.40;;;;;;5135488;27;20023;-74
2023/12/27 02:38:58;;;;;;;1.40;1.30;;;10.50;71.40;;;;;;5117085;27;20072;-75
2023/12/27 02:41:24;;;;;;;1.25;1.20;;;10.50;71.40;;;;;;5116718;27;20100;-74
2023/12/27 02:43:49;;;;;;;1.05;1.05;;;10.50;71.40;;;;;;5117497;27;20035;-75
2023/12/27 02:46:15;;;;;;;1.30;1.27;;;10.50;71.40;;;;;;5134997;27;20031;-75
2023/12/27 02:48:41;;;;;;;1.23;1.23;;;10.50;71.30;;;;;;5117859;27;20023;-75
2023/12/27 02:51:07;;;;;;;1.88;1.30;;;10.50;71.40;;;;;;5117094;27;20088;-74
2023/12/27 02:53:32;;;;;;;1.30;1.20;;;10.50;71.30;;;;;;5135311;27;20059;-73
2023/12/27 02:55:58;;;;;;;1.48;1.38;;;10.50;71.30;;;;;;5134904;27;20084;-75
2023/12/27 02:58:24;;;;;;;1.30;1.25;;;10.50;71.40;;;;;;5135286;27;20019;-73
2023/12/27 03:00:50;;;;;;;1.25;1.20;;;10.50;71.40;;;;;;5135075;27;20043;-75
2023/12/27 03:03:16;;;;;;;1.25;1.23;;;10.50;71.40;;;;;;5116328;27;20027;-74
2023/12/27 03:05:41;;;;;;;1.38;1.38;;;10.40;71.30;;;;;;5116621;27;20032;-75
2023/12/27 03:08:07;;;;;;;1.30;1.25;;;10.40;71.20;;;;;;5116489;27;20026;-75
2023/12/27 03:10:33;;;;;;;1.20;1.20;;;10.40;71.20;;;;;;5134590;27;20032;-74
2023/12/27 03:12:59;;;;;;;1.35;1.30;;;10.40;71.20;;;;;;5097911;28;20026;-73
2023/12/27 03:15:25;;;;;;;1.42;1.33;;;10.30;71.20;;;;;;5110261;28;20117;-74
2023/12/27 03:17:50;;;;;;;1.63;1.30;;;10.30;71.20;;;;;;5126136;28;20023;-74
2023/12/27 03:20:16;;;;;;;1.42;1.33;;;10.30;71.20;;;;;;5115989;28;20027;-75
2023/12/27 03:22:42;;;;;;;1.08;1.08;;;10.30;71.20;;;;;;5134689;28;20015;-74
2023/12/27 03:25:08;;;;;;;1.33;1.33;;;10.30;71.30;;;;;;5134612;27;20380;-74
2023/12/27 03:27:33;;;;;;;1.45;1.35;;;10.30;71.30;;;;;;5132627;28;20027;-74
2023/12/27 03:29:59;;;;;;;1.60;1.50;;;10.30;71.40;;;;;;5112871;28;20431;-73
2023/12/27 03:32:25;;;;;;;1.25;1.25;;;10.30;71.30;;;;;;5114028;28;20427;-75
2023/12/27 03:34:51;;;;;;;1.40;1.30;;;10.20;71.30;;;;;;5113924;28;20024;-75
2023/12/27 03:37:16;;;;;;;1.35;1.27;;;10.20;71.30;;;;;;5114538;28;20069;-74
2023/12/27 03:39:43;;;;;;;1.20;1.10;;;10.20;71.30;;;;;;5117844;28;20030;-74
2023/12/27 03:42:12;;;;;;;1.42;1.33;;;10.20;71.30;;;;;;5118228;28;20032;-75
2023/12/27 03:44:38;;;;;;;1.42;1.33;;;10.20;71.30;;;;;;5118261;28;20137;-75
2023/12/27 03:47:04;;;;;;;1.10;1.10;;;10.20;71.30;;;;;;5117895;28;20106;-74
2023/12/27 03:49:30;;;;;;;1.20;1.20;;;10.20;71.40;;;;;;5106509;27;20053;-73
2023/12/27 03:51:55;;;;;;;1.40;1.30;;;10.20;71.40;;;;;;5138016;27;20110;-74
2023/12/27 03:54:21;;;;;;;1.50;1.40;;;10.20;71.30;;;;;;5138504;27;20107;-74
2023/12/27 03:56:47;;;;;;;1.40;1.30;;;10.10;71.30;;;;;;5138529;27;20034;-74
2023/12/27 03:59:13;;;;;;;1.40;1.30;;;10.10;71.30;;;;;;5120372;27;20051;-75
2023/12/27 04:01:39;;;;;;;1.45;1.35;;;10.10;71.20;;;;;;5120761;27;20075;-75
2023/12/27 04:04:05;;;;;;;1.20;1.20;;;10.10;71.20;;;;;;5117707;28;20069;-73
2023/12/27 04:06:31;;;;;;;1.10;1.10;;;10.10;71.20;;;;;;5117931;28;20039;-76
2023/12/27 04:08:56;;;;;;;1.60;1.50;;;10.10;71.20;;;;;;5117527;28;20023;-73
2023/12/27 04:11:22;;;;;;;1.17;1.10;;;10.00;71.10;;;;;;5117477;28;20034;-75
2023/12/27 04:13:48;;;;;;;1.27;1.20;;;10.00;71.10;;;;;;5117420;28;20145;-74
2023/12/27 04:16:14;;;;;;;1.30;1.20;;;10.00;71.10;;;;;;5116236;28;20374;-75
2023/12/27 04:18:40;;;;;;;1.52;1.42;;;10.00;71.10;;;;;;5117462;28;20032;-75
2023/12/27 04:21:06;;;;;;;1.20;1.10;;;10.00;71.10;;;;;;5117407;28;20020;-74
2023/12/27 04:23:32;;;;;;;1.40;1.30;;;10.00;71.10;;;;;;5115808;28;20114;-76
2023/12/27 04:25:57;;;;;;;1.10;1.10;;;10.00;71.10;;;;;;5117565;28;20036;-75
2023/12/27 04:28:23;;;;;;;1.50;1.40;;;10.00;71.10;;;;;;5117581;28;20402;-75
2023/12/27 04:30:49;;;;;;;1.33;1.23;;;10.00;71.00;;;;;;5122187;27;20023;-75
2023/12/27 04:33:14;;;;;;;1.45;1.35;;;10.00;71.00;;;;;;5115827;28;20457;-74
2023/12/27 04:35:41;;;;;;;1.45;1.38;;;10.00;70.90;;;;;;5120866;27;20115;-75
2023/12/27 04:38:06;;;;;;;1.40;1.30;;;10.00;70.90;;;;;;5132860;27;20435;-74
2023/12/27 04:40:32;;;;;;;1.00;1.00;;;10.00;70.90;;;;;;5135422;27;20062;-75
2023/12/27 04:42:59;;;;;;;1.55;1.45;;;10.00;70.80;;;;;;5098873;28;20043;-74
2023/12/27 04:45:25;;;;;;;1.60;1.50;;;10.00;70.80;;;;;;5099128;28;20380;-75
2023/12/27 04:47:51;;;;;;;1.67;1.58;;;10.00;70.70;;;;;;5116846;28;20023;-73
2023/12/27 04:50:17;;;;;;;1.50;1.40;;;10.00;70.70;;;;;;5097230;28;20034;-74
2023/12/27 04:52:43;;;;;;;1.20;1.20;;;10.00;70.60;;;;;;5100630;27;20060;-73
2023/12/27 04:55:09;;;;;;;1.55;1.45;;;10.00;70.60;;;;;;5118720;27;20028;-74
2023/12/27 04:57:36;;;;;;;1.35;1.25;;;10.00;70.60;;;;;;5137276;27;20031;-74
2023/12/27 05:00:04;;;;;;;1.60;1.50;;;9.90;70.50;;;;;;5136314;27;20136;-74
2023/12/27 05:02:29;;;;;;;1.50;1.40;;;9.90;70.50;;;;;;5100762;28;20076;-73
2023/12/27 05:04:55;;;;;;;1.45;1.38;;;9.90;70.50;;;;;;5115056;28;20509;-74
2023/12/27 05:07:21;;;;;;;1.70;1.60;;;9.90;70.50;;;;;;5116512;28;20039;-74
2023/12/27 05:09:47;;;;;;;1.63;1.52;;;9.90;70.50;;;;;;5116734;28;20027;-74
2023/12/27 05:12:13;;;;;;;1.55;1.45;;;9.90;70.50;;;;;;5115125;28;20588;-74
2023/12/27 05:14:38;;;;;;;1.60;1.50;;;9.80;70.40;;;;;;5119691;27;20019;-75
2023/12/27 05:17:04;;;;;;;1.50;1.40;;;9.90;70.50;;;;;;5130350;27;20034;-74
2023/12/27 05:19:30;;;;;;;1.70;1.60;;;9.80;70.30;;;;;;5101414;27;20114;-75
2023/12/27 05:21:55;;;;;;;1.98;1.50;;;9.80;70.30;;;;;;5120455;27;20024;-76
2023/12/27 05:24:21;;;;;;;1.63;1.52;;;9.80;70.30;;;;;;5125363;27;20088;-72
2023/12/27 05:26:47;;;;;;;1.70;1.60;;;9.80;70.30;;;;;;5122979;27;20027;-76
2023/12/27 05:29:13;;;;;;;1.55;1.45;;;9.80;70.20;;;;;;5120919;27;20104;-72
2023/12/27 05:31:38;;;;;;;1.70;1.60;;;9.70;70.20;;;;;;5096751;28;20059;-77
2023/12/27 05:34:04;;;;;;;1.98;1.88;;;9.70;70.20;;;;;;5098300;27;20065;-77
2023/12/27 05:36:30;;;;;;;1.50;1.40;;;9.80;70.20;;;;;;5117512;27;20035;-78
2023/12/27 05:38:56;;;;;;;1.70;1.60;;;9.70;70.10;;;;;;5117928;27;20027;-76
2023/12/27 05:41:24;;;;;;;1.83;1.60;;;9.70;70.10;;;;;;5136955;27;20066;-75
2023/12/27 05:43:51;;;;;;;1.73;1.63;;;9.70;70.00;;;;;;5125229;27;20039;-75
2023/12/27 05:46:16;;;;;;;1.70;1.60;;;9.70;70.00;;;;;;5110756;27;20085;-72
2023/12/27 05:48:42;;;;;;;1.83;1.50;;;9.70;69.90;;;;;;5106083;28;20469;-78
2023/12/27 05:51:08;;;;;;;1.98;1.60;;;9.70;69.90;;;;;;5117313;27;20055;-76
2023/12/27 05:53:34;;;;;;;1.50;1.40;;;9.70;69.90;;;;;;5096970;28;20123;-75
2023/12/27 05:55:59;;;;;;;1.75;1.52;;;9.70;69.80;;;;;;5116752;27;20035;-77
2023/12/27 05:58:26;;;;;;;1.58;1.48;;;9.70;69.70;;;;;;5097372;28;20528;-77
2023/12/27 06:00:52;;;;;;;1.60;1.50;;;9.70;69.70;;;;;;5096965;28;20492;-79
2023/12/27 06:03:17;;;;;;;2.75;2.33;;;9.70;69.70;;;;;;5120563;27;20027;-77
2023/12/27 06:05:43;;;;;;;3.25;2.30;;;9.70;69.90;;;;;;5111705;27;20411;-77
2023/12/27 06:08:09;;;;;;;2.60;2.22;;;9.70;69.90;;;;;;5111839;27;20461;-76
2023/12/27 06:10:37;;;;;;;3.08;2.67;;;9.70;69.70;;;;;;5134326;27;20053;-76
2023/12/27 06:13:03;;;;;;;4.45;2.70;;;9.70;69.90;;;;;;5115784;27;20106;-76
2023/12/27 06:15:29;;;;;;;3.95;3.00;;;9.70;69.90;;;;;;5116945;27;20031;-76
2023/12/27 06:17:55;;;;;;;3.83;2.85;;;9.70;70.10;;;;;;5116983;27;20509;-76
2023/12/27 06:20:20;;;;;;;4.07;2.80;;;9.70;70.00;;;;;;5135331;27;20031;-75
2023/12/27 06:22:46;;;;;;;3.60;2.70;;;9.70;70.20;;;;;;5135542;27;20015;-76
2023/12/27 06:25:12;;;;;;;2.92;2.50;;;9.80;70.20;;;;;;5135956;27;20076;-76
2023/12/27 06:27:39;;;;;;;2.65;2.33;;;9.80;70.10;;;;;;5116912;27;20350;-77
2023/12/27 06:30:05;;;;;;;3.33;2.50;;;9.80;70.00;;;;;;5106472;27;20590;-76
2023/12/27 06:32:31;;;;;;;3.00;2.45;;;9.80;70.00;;;;;;5126030;27;20500;-73
2023/12/27 06:34:57;;;;;;;2.55;2.30;;;9.80;70.00;;;;;;5096072;28;20027;-81
2023/12/27 06:37:23;;;;;;;3.35;2.30;;;9.80;70.00;;;;;;5099303;27;20032;-76
2023/12/27 06:39:49;;;;;;;3.38;2.42;;;9.80;69.90;;;;;;5124218;27;20023;-78
2023/12/27 06:42:15;;;;;;;3.45;2.30;;;9.80;69.90;;;;;;5096365;28;20054;-77
2023/12/27 06:44:40;;;;;;;2.97;2.50;;;9.80;70.00;;;;;;5132577;27;20039;-76
2023/12/27 06:47:06;;;;;;;2.75;2.30;;;9.80;70.00;;;;;;5135922;27;20019;-79
2023/12/27 06:49:33;;;;;;;2.75;2.33;;;9.80;69.90;;;;;;5116520;27;20430;-78
2023/12/27 06:51:59;;;;;;;2.50;2.20;;;9.80;69.70;;;;;;5116887;27;20030;-80
2023/12/27 06:54:24;;;;;;;2.20;1.90;;;9.80;69.70;;;;;;5135193;27;20027;-78
2023/12/27 06:56:50;;;;;;;2.72;2.40;;;9.80;69.60;;;;;;5098827;28;20115;-76
2023/12/27 06:59:16;;;;;;;2.75;2.20;;;9.80;69.60;;;;;;5114637;28;20024;-76
2023/12/27 07:01:42;;;;;;;2.47;2.28;;;9.80;69.80;;;;;;5114313;28;20079;-76
2023/12/27 07:04:08;;;;;;;4.53;3.38;;;9.80;70.00;;;;;;5114136;28;20039;-71
2023/12/27 07:06:34;;;;;;;5.63;3.70;;;10.00;72.20;;;;;;5111370;27;20025;-78
2023/12/27 07:09:00;;;;;;;7.15;4.00;;;10.30;73.30;;;;;;5111179;27;20434;-73
2023/12/27 07:11:26;;;;;;;5.28;4.10;;;10.80;73.40;;;;;;5116009;27;20578;-72
2023/12/27 07:13:52;;;;;;;5.55;3.88;;;11.20;72.70;;;;;;5134104;27;20035;-76
2023/12/27 07:16:18;;;;;;;5.43;3.97;;;11.70;72.40;;;;;;5132201;27;20051;-79
2023/12/27 07:18:44;;;;;;;5.60;4.00;;;12.00;71.80;;;;;;5096820;28;20066;-78
2023/12/27 07:21:11;;;;;;;4.72;3.40;;;12.40;71.10;;;;;;5116397;28;20028;-85
2023/12/27 07:23:37;;;;;;;4.13;3.33;;;12.70;70.60;;;;;;5104800;28;20053;-85
2023/12/27 07:26:04;;;;;;;3.40;2.45;;;12.90;69.00;;;;;;5134844;27;20057;-87
2023/12/27 07:28:30;;;;;;;2.70;2.10;;;13.00;68.00;;;;;;5117901;28;20500;-86
2023/12/27 07:30:57;;;;;;;3.08;2.30;;;12.70;67.20;;;;;;5135971;27;20068;-86
2023/12/27 07:33:23;;;;;;;2.75;2.10;;;12.50;67.00;;;;;;5134918;28;20050;-83
2023/12/27 07:35:49;;;;;;;2.50;2.00;;;12.30;66.90;;;;;;5108769;28;20420;-85
2023/12/27 07:38:15;;;;;;;2.63;1.98;;;12.10;67.00;;;;;;5099842;28;20027;-85
2023/12/27 07:40:43;;;;;;;2.03;1.83;;;11.90;67.20;;;;;;5123600;28;20026;-85
2023/12/27 07:43:09;;;;;;;1.88;1.70;;;11.70;67.20;;;;;;5135950;27;20032;-84
2023/12/27 07:45:35;;;;;;;1.90;1.80;;;11.50;67.40;;;;;;5118375;28;20441;-83
2023/12/27 07:48:01;;;;;;;2.10;1.90;;;11.40;67.40;;;;;;5120045;28;20027;-85
2023/12/27 07:50:27;;;;;;;1.75;1.50;;;11.30;67.40;;;;;;5135742;27;20106;-83
2023/12/27 07:52:52;;;;;;;2.35;1.92;;;11.10;67.30;;;;;;5130116;27;20083;-88
2023/12/27 07:55:19;;;;;;;3.30;1.85;;;11.00;67.60;;;;;;5118636;28;20023;-84
2023/12/27 07:57:46;;;;;;;1.45;1.35;;;10.90;67.60;;;;;;5097982;28;20534;-85
2023/12/27 08:00:15;;;;;;;1.80;1.67;;;10.80;67.40;;;;;;5097358;28;20048;-85
2023/12/27 08:02:41;;;;;;;1.70;1.60;;;10.80;67.50;;;;;;5114536;28;20032;-85
2023/12/27 08:05:07;;;;;;;1.50;1.40;;;10.70;67.60;;;;;;5115046;28;20031;-84
2023/12/27 08:07:33;;;;;;;2.22;1.60;;;10.70;67.70;;;;;;5114292;28;20023;-84
2023/12/27 08:09:59;;;;;;;1.63;1.52;;;10.60;67.40;;;;;;5096214;28;20040;-84
2023/12/27 08:12:25;;;;;;;1.70;1.60;;;10.50;67.40;;;;;;5114282;28;20477;-84
2023/12/27 08:14:50;;;;;;;1.90;1.70;;;10.50;68.20;;;;;;5114077;28;20038;-85
2023/12/27 08:17:16;;;;;;;1.60;1.50;;;10.40;67.40;;;;;;5113872;28;20034;-83
2023/12/27 08:19:42;;;;;;;2.80;1.65;;;10.40;67.40;;;;;;5114717;28;20035;-84
2023/12/27 08:22:08;;;;;;;1.70;1.60;;;10.40;67.20;;;;;;5114362;28;20035;-85
2023/12/27 08:24:34;;;;;;;1.60;1.50;;;10.30;67.00;;;;;;5129485;27;20035;-85
2023/12/27 08:26:59;;;;;;;2.47;1.73;;;10.20;67.10;;;;;;5099821;28;20024;-82
2023/12/27 08:29:25;;;;;;;2.38;1.52;;;10.20;67.20;;;;;;5117691;28;20035;-85
2023/12/27 08:31:51;;;;;;;1.70;1.60;;;10.20;67.40;;;;;;5099662;28;20027;-84
2023/12/27 08:34:17;;;;;;;2.00;1.80;;;10.20;67.30;;;;;;5111777;27;20041;-85
2023/12/27 08:36:45;;;;;;;1.77;1.67;;;10.20;67.20;;;;;;5103839;27;20027;-85
2023/12/27 08:39:11;;;;;;;1.65;1.55;;;10.20;67.20;;;;;;5138975;27;20034;-84
2023/12/27 08:41:37;;;;;;;1.75;1.52;;;10.20;67.10;;;;;;5130194;27;20027;-84
2023/12/27 08:44:04;;;;;;;1.58;1.48;;;10.20;67.10;;;;;;5099139;28;20487;-85
2023/12/27 08:46:30;;;;;;;1.65;1.50;;;10.20;66.80;;;;;;5118524;28;20015;-82
2023/12/27 08:48:55;;;;;;;1.65;1.50;;;10.30;66.90;;;;;;5117927;28;20413;-83
2023/12/27 08:51:21;;;;;;;3.13;1.63;;;10.40;66.90;;;;;;5118327;27;20028;-83
2023/12/27 08:53:47;;;;;;;1.60;1.50;;;10.40;66.50;;;;;;5117304;28;20036;-79
2023/12/27 08:56:13;;;;;;;1.58;1.42;;;10.40;66.20;;;;;;5116169;27;20050;-81
2023/12/27 08:58:38;;;;;;;1.17;1.10;;;10.40;66.30;;;;;;5134067;27;20520;-83
2023/12/27 09:01:07;;;;;;;1.20;1.20;;;10.20;66.50;;;;;;5129204;27;20102;-81
2023/12/27 09:03:55;;;;;;;1.10;1.10;;;10.00;66.60;;;;;;5119218;28;20036;-81
2023/12/27 09:06:21;;;;;;;1.10;1.10;;;9.90;66.90;;;;;;5131090;27;20031;-78
2023/12/27 09:08:49;;;;;;;1.00;1.00;;;9.80;67.10;;;;;;5136370;27;20034;-78
2023/12/27 09:11:16;;;;;;;1.10;1.10;;;9.70;67.30;;;;;;5135874;27;20468;-81
2023/12/27 09:13:41;;;;;;;1.10;1.10;;;9.60;67.20;;;;;;5137276;27;20033;-80
2023/12/27 09:16:08;;;;;;;1.00;1.00;;;9.50;67.20;;;;;;5136762;27;20106;-79
2023/12/27 09:18:33;;;;;;;1.10;1.00;;;9.50;67.40;;;;;;5136574;27;20118;-79
2023/12/27 09:20:59;;;;;;;1.08;1.08;;;9.40;67.40;;;;;;5136093;27;20448;-80
2023/12/27 09:23:28;;;;;;;1.00;1.00;;;9.30;67.50;;;;;;5135913;27;20438;-80
2023/12/27 09:25:54;;;;;;;1.17;1.08;;;9.20;67.50;;;;;;5123170;27;20039;-80
2023/12/27 09:28:21;;;;;;;1.13;1.02;;;9.20;67.50;;;;;;5110963;27;20514;-79
2023/12/27 09:30:47;;;;;;;1.08;1.08;;;9.10;67.50;;;;;;5122762;27;20362;-79
2023/12/27 09:33:13;;;;;;;1.00;1.00;;;9.10;67.50;;;;;;5098043;28;20027;-76
2023/12/27 09:35:40;;;;;;;1.10;1.10;;;9.10;67.60;;;;;;5135870;27;20468;-79
2023/12/27 09:38:06;;;;;;;1.05;1.05;;;9.10;67.70;;;;;;5136442;27;20023;-78
2023/12/27 09:40:39;;;;;;;1.20;1.20;;;9.10;67.70;;;;;;5121866;27;20378;-77
2023/12/27 09:43:06;;;;;;;1.52;1.20;;;9.10;67.70;;;;;;5125314;27;20155;-79
2023/12/27 09:45:36;;;;;;;1.33;1.23;;;9.10;67.60;;;;;;5135196;27;20023;-78
2023/12/27 09:48:04;;;;;;;1.15;1.15;;;9.10;67.60;;;;;;5115661;28;20042;-78
2023/12/27 09:50:31;;;;;;;1.05;1.05;;;9.10;67.50;;;;;;5115565;28;20023;-79
2023/12/27 09:52:57;;;;;;;1.17;1.17;;;9.20;67.70;;;;;;5115471;28;20054;-77
2023/12/27 09:55:23;;;;;;;1.00;1.00;;;9.20;67.60;;;;;;5097953;28;20106;-81
2023/12/27 09:57:50;;;;;;;1.13;1.13;;;9.30;67.60;;;;;;5101214;28;20033;-80
2023/12/27 10:00:17;;;;;;;1.10;1.00;;;9.30;67.50;;;;;;5100341;27;20055;-80
2023/12/27 10:02:44;;;;;;;1.00;1.00;;;9.30;67.40;;;;;;5115175;28;20042;-79
2023/12/27 10:05:22;;;;;;;1.08;1.08;;;9.30;67.30;;;;;;5096874;28;20035;-79
2023/12/27 10:07:48;;;;;;;1.15;1.15;;;9.30;67.20;;;;;;5097208;28;20450;-79
2023/12/27 10:10:15;;;;;;;1.13;1.13;;;9.20;67.00;;;;;;5096957;28;20027;-79
2023/12/27 10:12:41;;;;;;;1.08;1.08;;;9.20;67.00;;;;;;5114879;28;20047;-80
2023/12/27 10:15:12;;;;;;;1.10;1.10;;;9.20;66.90;;;;;;5114941;28;20529;-78
2023/12/27 10:17:38;;;;;;;1.17;1.17;;;9.20;66.90;;;;;;5113574;28;20034;-81
2023/12/27 10:20:06;;;;;;;1.10;1.10;;;9.20;66.80;;;;;;5114859;28;20407;-79
2023/12/27 10:22:32;;;;;;;1.10;1.10;;;9.20;66.80;;;;;;5097418;28;20030;-80
2023/12/27 10:24:59;;;;;;;1.40;1.30;;;9.20;66.70;;;;;;5114977;28;20367;-77
2023/12/27 10:27:30;;;;;;;1.23;1.23;;;9.10;66.60;;;;;;5096617;28;20027;-81
2023/12/27 10:29:56;;;;;;;1.30;1.30;;;9.10;66.60;;;;;;5114775;28;20034;-80
2023/12/27 10:32:25;;;;;;;1.30;1.20;;;9.10;66.60;;;;;;5114872;28;20038;-79
2023/12/27 10:34:51;;;;;;;1.20;1.20;;;9.10;66.60;;;;;;5114836;28;20028;-79
2023/12/27 10:37:18;;;;;;;1.23;1.13;;;9.10;66.60;;;;;;5114805;28;20470;-81
2023/12/27 10:39:44;;;;;;;1.40;1.30;;;9.10;66.50;;;;;;5114805;28;20023;-80
2023/12/27 10:42:16;;;;;;;1.20;1.20;;;9.10;66.40;;;;;;5096142;28;20028;-79
2023/12/27 10:44:48;;;;;;;1.25;1.20;;;9.10;66.40;;;;;;5114605;28;20410;-79
2023/12/27 10:47:19;;;;;;;1.35;1.30;;;9.20;66.40;;;;;;5095703;28;20051;-80
2023/12/27 10:49:48;;;;;;;1.30;1.20;;;9.20;66.30;;;;;;5096912;28;20043;-80
2023/12/27 10:52:17;;;;;;;1.27;1.27;;;9.20;66.20;;;;;;5096515;28;20035;-79
2023/12/27 10:54:47;;;;;;;1.10;1.10;;;9.20;66.00;;;;;;5114617;28;20122;-81
2023/12/27 10:57:18;;;;;;;1.10;1.10;;;9.20;65.80;;;;;;5096170;28;20046;-78
2023/12/27 10:59:47;;;;;;;1.58;1.40;;;9.20;65.70;;;;;;5114439;28;20126;-80
2023/12/27 11:02:13;;;;;;;1.13;1.13;;;9.20;65.50;;;;;;5096357;28;20031;-82
2023/12/27 11:04:41;;;;;;;1.30;1.20;;;9.20;65.50;;;;;;5114379;28;20042;-80
2023/12/27 11:07:08;;;;;;;1.00;1.00;;;9.20;65.40;;;;;;5114135;28;20027;-80
2023/12/27 11:09:38;;;;;;;1.08;1.08;;;9.20;65.40;;;;;;5114237;28;20103;-80
2023/12/27 11:12:07;;;;;;;1.40;1.30;;;9.20;65.30;;;;;;5114080;28;20038;-79
2023/12/27 11:14:36;;;;;;;1.40;1.30;;;9.20;65.30;;;;;;5114230;28;20051;-80
2023/12/27 11:17:05;;;;;;;1.20;1.20;;;9.20;65.10;;;;;;5117110;27;20016;-80
2023/12/27 11:19:33;;;;;;;1.30;1.30;;;9.20;65.00;;;;;;5106343;28;20028;-80
2023/12/27 11:21:59;;;;;;;1.10;1.10;;;9.20;64.80;;;;;;5100889;28;20024;-78
2023/12/27 11:24:29;;;;;;;1.30;1.20;;;9.20;64.70;;;;;;5118115;28;20031;-81
2023/12/27 11:27:02;;;;;;;1.30;1.20;;;9.20;64.60;;;;;;5110468;28;20012;-82
2023/12/27 11:29:31;;;;;;;1.40;1.30;;;9.20;64.50;;;;;;5095101;28;20027;-81
2023/12/27 11:32:00;;;;;;;1.30;1.20;;;9.30;64.50;;;;;;5094666;28;20019;-78
2023/12/27 11:34:26;;;;;;;1.20;1.10;;;9.30;64.50;;;;;;5112620;28;20024;-78
2023/12/27 11:36:52;;;;;;;1.25;1.20;;;9.30;64.40;;;;;;5093951;28;20035;-79
2023/12/27 11:39:51;;;;;;;1.23;1.13;;;9.30;64.20;;;;;;5113722;28;20064;-79
2023/12/27 11:42:17;;;;;;;1.10;1.10;;;9.30;63.90;;;;;;5092505;28;20035;-77
2023/12/27 11:44:59;;;;;;;1.00;1.00;;;9.30;63.60;;;;;;5094209;28;20031;-83
2023/12/27 11:48:16;;;;;;;1.25;1.17;;;9.20;63.30;;;;;;5092625;28;20464;-79
2023/12/27 11:50:43;;;;;;;1.20;1.20;;;9.20;63.20;;;;;;5093485;28;20024;-79
2023/12/27 11:53:09;;;;;;;1.08;1.08;;;9.20;63.30;;;;;;5093504;28;20031;-77
2023/12/27 11:55:35;;;;;;;1.30;1.30;;;9.20;63.30;;;;;;5112957;28;20031;-81
2023/12/27 11:58:01;;;;;;;1.30;1.30;;;9.20;63.20;;;;;;5103043;27;20425;-76
2023/12/27 12:00:30;;;;;;;1.00;1.00;;;9.20;63.20;;;;;;5120089;27;20051;-73
2023/12/27 12:03:11;;;;;;;1.25;1.15;;;9.20;63.20;;;;;;5127297;27;20121;-75
2023/12/27 12:06:15;;;;;;;1.20;1.10;;;9.30;63.00;;;;;;5101219;28;20504;-76
2023/12/27 12:08:46;;;;;;;1.38;1.20;;;9.30;62.90;;;;;;5118623;27;20058;-74
2023/12/27 12:11:15;;;;;;;1.30;1.30;;;9.30;62.80;;;;;;5125566;27;20068;-73
2023/12/27 12:13:42;;;;;;;1.10;1.10;;;9.30;62.60;;;;;;5099149;28;20031;-71
2023/12/27 12:16:12;;;;;;;1.00;1.00;;;9.30;62.50;;;;;;5117615;28;20027;-73
2023/12/27 12:18:39;;;;;;;1.15;1.15;;;9.30;62.40;;;;;;5117140;27;20031;-74
2023/12/27 12:21:05;;;;;;;1.52;1.45;;;9.30;62.30;;;;;;5119009;27;20059;-76
2023/12/27 12:23:47;;;;;;;1.20;1.20;;;9.30;62.20;;;;;;5136080;27;20135;-79
2023/12/27 12:26:13;;;;;;;1.25;1.20;;;9.30;62.00;;;;;;5101673;28;20048;-76
2023/12/27 12:28:39;;;;;;;1.52;1.10;;;9.30;62.10;;;;;;5117253;28;20051;-78
2023/12/27 12:31:04;;;;;;;1.00;1.00;;;9.30;62.00;;;;;;5135039;27;20393;-78
2023/12/27 12:33:30;;;;;;;1.25;1.25;;;9.30;61.80;;;;;;5138349;27;20076;-79
2023/12/27 12:35:56;;;;;;;1.30;1.20;;;9.30;61.70;;;;;;5119924;27;20027;-76
2023/12/27 12:38:22;;;;;;;0.95;0.95;;;9.30;61.80;;;;;;5119172;27;20425;-77
2023/12/27 12:40:48;;;;;;;1.17;1.17;;;9.30;61.90;;;;;;5117052;27;20039;-75
2023/12/27 12:43:20;;;;;;;1.30;1.20;;;9.40;61.80;;;;;;5119206;27;20035;-77
2023/12/27 12:45:46;;;;;;;1.10;1.10;;;9.40;61.60;;;;;;5116714;28;20016;-75
2023/12/27 12:48:13;;;;;;;1.10;1.10;;;9.30;61.60;;;;;;5115674;28;20080;-75